sensor_id;sensor_type;location;lat;lon;timestamp;P1;durP1;ratioP1;P2;durP2;ratioP2
44981;SDS011;30716;41.740;-70.400;2023-04-07T00:01:36;1.13;;;0.70;;
44981;SDS011;30716;41.740;-70.400;2023-04-07T00:04:02;1.67;;;0.90;;
44981;SDS011;30716;41.740;-70.400;2023-04-07T00:06:29;1.52;;;0.88;;
44981;SDS011;30716;41.740;-70.400;2023-04-07T00:08:55;2.03;;;1.00;;
44981;SDS011;30716;41.740;-70.400;2023-04-07T00:11:21;1.58;;;0.98;;
44981;SDS011;30716;41.740;-70.400;2023-04-07T00:13:48;1.75;;;0.88;;
44981;SDS011;30716;41.740;-70.400;2023-04-07T00:16:14;1.23;;;0.77;;
44981;SDS011;30716;41.740;-70.400;2023-04-07T00:18:40;1.67;;;0.98;;
44981;SDS011;30716;41.740;-70.400;2023-04-07T00:21:06;1.85;;;1.00;;
44981;SDS011;30716;41.740;-70.400;2023-04-07T00:23:32;2.25;;;1.15;;
44981;SDS011;30716;41.740;-70.400;2023-04-07T00:25:58;1.27;;;0.73;;
44981;SDS011;30716;41.740;-70.400;2023-04-07T00:28:25;1.40;;;0.82;;
44981;SDS011;30716;41.740;-70.400;2023-04-07T00:30:51;0.98;;;0.50;;
44981;SDS011;30716;41.740;-70.400;2023-04-07T00:33:17;1.77;;;1.00;;
44981;SDS011;30716;41.740;-70.400;2023-04-07T00:35:43;1.42;;;0.80;;
44981;SDS011;30716;41.740;-70.400;2023-04-07T00:38:10;1.67;;;1.00;;
44981;SDS011;30716;41.740;-70.400;2023-04-07T00:40:36;1.33;;;0.70;;
44981;SDS011;30716;41.740;-70.400;2023-04-07T00:43:02;1.02;;;0.60;;
44981;SDS011;30716;41.740;-70.400;2023-04-07T00:45:28;1.45;;;0.82;;
44981;SDS011;30716;41.740;-70.400;2023-04-07T00:47:55;1.38;;;0.80;;
44981;SDS011;30716;41.740;-70.400;2023-04-07T00:50:22;1.67;;;0.98;;
44981;SDS011;30716;41.740;-70.400;2023-04-07T00:52:49;1.75;;;0.90;;
44981;SDS011;30716;41.740;-70.400;2023-04-07T00:55:16;1.80;;;0.82;;
44981;SDS011;30716;41.740;-70.400;2023-04-07T00:57:42;1.25;;;0.77;;
44981;SDS011;30716;41.740;-70.400;2023-04-07T01:00:10;1.10;;;0.70;;
44981;SDS011;30716;41.740;-70.400;2023-04-07T01:02:40;1.52;;;0.80;;
44981;SDS011;30716;41.740;-70.400;2023-04-07T01:05:12;1.17;;;0.68;;
44981;SDS011;30716;41.740;-70.400;2023-04-07T01:10:49;1.98;;;0.90;;
44981;SDS011;30716;41.740;-70.400;2023-04-07T01:13:42;1.40;;;0.95;;
44981;SDS011;30716;41.740;-70.400;2023-04-07T01:16:23;1.30;;;0.95;;
44981;SDS011;30716;41.740;-70.400;2023-04-07T01:19:02;1.73;;;1.05;;
44981;SDS011;30716;41.740;-70.400;2023-04-07T01:21:36;2.15;;;1.00;;
44981;SDS011;30716;41.740;-70.400;2023-04-07T01:26:59;1.45;;;0.90;;
44981;SDS011;30716;41.740;-70.400;2023-04-07T01:29:41;1.80;;;1.17;;
44981;SDS011;30716;41.740;-70.400;2023-04-07T01:32:12;1.73;;;0.90;;
44981;SDS011;30716;41.740;-70.400;2023-04-07T01:34:39;2.40;;;1.00;;
44981;SDS011;30716;41.740;-70.400;2023-04-07T01:37:07;1.73;;;1.13;;
44981;SDS011;30716;41.740;-70.400;2023-04-07T01:39:34;1.80;;;1.20;;
44981;SDS011;30716;41.740;-70.400;2023-04-07T01:42:02;1.33;;;0.80;;
44981;SDS011;30716;41.740;-70.400;2023-04-07T01:44:31;1.10;;;0.80;;
44981;SDS011;30716;41.740;-70.400;2023-04-07T01:46:58;1.98;;;1.00;;
44981;SDS011;30716;41.740;-70.400;2023-04-07T01:49:25;1.70;;;0.90;;
44981;SDS011;30716;41.740;-70.400;2023-04-07T01:51:53;2.22;;;1.00;;
44981;SDS011;30716;41.740;-70.400;2023-04-07T01:54:19;1.48;;;0.77;;
44981;SDS011;30716;41.740;-70.400;2023-04-07T01:56:46;2.13;;;1.00;;
44981;SDS011;30716;41.740;-70.400;2023-04-07T01:59:13;0.70;;;0.45;;
44981;SDS011;30716;41.740;-70.400;2023-04-07T02:01:39;1.50;;;0.80;;
44981;SDS011;30716;41.740;-70.400;2023-04-07T02:06:53;1.48;;;0.90;;
44981;SDS011;30716;41.740;-70.400;2023-04-07T02:09:23;1.52;;;0.90;;
44981;SDS011;30716;41.740;-70.400;2023-04-07T02:11:54;8.32;;;1.38;;
44981;SDS011;30716;41.740;-70.400;2023-04-07T02:14:24;3.05;;;1.48;;
44981;SDS011;30716;41.740;-70.400;2023-04-07T02:16:51;1.38;;;1.20;;
44981;SDS011;30716;41.740;-70.400;2023-04-07T02:19:19;1.95;;;1.15;;
44981;SDS011;30716;41.740;-70.400;2023-04-07T02:21:46;1.48;;;0.80;;
44981;SDS011;30716;41.740;-70.400;2023-04-07T02:24:17;1.33;;;0.90;;
44981;SDS011;30716;41.740;-70.400;2023-04-07T02:26:45;1.67;;;1.02;;
44981;SDS011;30716;41.740;-70.400;2023-04-07T02:29:12;2.00;;;1.08;;
44981;SDS011;30716;41.740;-70.400;2023-04-07T02:31:38;1.23;;;0.95;;
44981;SDS011;30716;41.740;-70.400;2023-04-07T02:34:05;1.50;;;1.10;;
44981;SDS011;30716;41.740;-70.400;2023-04-07T02:36:31;1.30;;;0.80;;
44981;SDS011;30716;41.740;-70.400;2023-04-07T02:38:57;1.55;;;1.15;;
44981;SDS011;30716;41.740;-70.400;2023-04-07T02:41:23;1.88;;;1.05;;
44981;SDS011;30716;41.740;-70.400;2023-04-07T02:43:50;2.15;;;1.65;;
44981;SDS011;30716;41.740;-70.400;2023-04-07T02:46:16;3.13;;;1.42;;
44981;SDS011;30716;41.740;-70.400;2023-04-07T02:48:42;1.00;;;0.70;;
44981;SDS011;30716;41.740;-70.400;2023-04-07T02:51:08;1.52;;;0.85;;
44981;SDS011;30716;41.740;-70.400;2023-04-07T02:53:35;1.70;;;1.00;;
44981;SDS011;30716;41.740;-70.400;2023-04-07T02:56:01;1.60;;;0.85;;
44981;SDS011;30716;41.740;-70.400;2023-04-07T02:58:27;1.70;;;1.08;;
44981;SDS011;30716;41.740;-70.400;2023-04-07T03:00:53;1.60;;;0.93;;
44981;SDS011;30716;41.740;-70.400;2023-04-07T03:03:19;1.77;;;1.00;;
44981;SDS011;30716;41.740;-70.400;2023-04-07T03:05:46;2.05;;;1.10;;
44981;SDS011;30716;41.740;-70.400;2023-04-07T03:08:12;1.33;;;0.80;;
44981;SDS011;30716;41.740;-70.400;2023-04-07T03:10:38;1.25;;;0.90;;
44981;SDS011;30716;41.740;-70.400;2023-04-07T03:13:05;1.90;;;1.08;;
44981;SDS011;30716;41.740;-70.400;2023-04-07T03:15:32;1.45;;;0.98;;
44981;SDS011;30716;41.740;-70.400;2023-04-07T03:17:58;1.98;;;0.90;;
44981;SDS011;30716;41.740;-70.400;2023-04-07T03:20:25;1.92;;;1.15;;
44981;SDS011;30716;41.740;-70.400;2023-04-07T03:22:51;1.40;;;1.13;;
44981;SDS011;30716;41.740;-70.400;2023-04-07T03:25:17;2.08;;;1.10;;
44981;SDS011;30716;41.740;-70.400;2023-04-07T03:27:44;2.15;;;1.00;;
44981;SDS011;30716;41.740;-70.400;2023-04-07T03:30:10;1.90;;;1.25;;
44981;SDS011;30716;41.740;-70.400;2023-04-07T03:32:36;2.17;;;1.20;;
44981;SDS011;30716;41.740;-70.400;2023-04-07T03:35:03;2.05;;;1.17;;
44981;SDS011;30716;41.740;-70.400;2023-04-07T03:37:29;2.03;;;0.98;;
44981;SDS011;30716;41.740;-70.400;2023-04-07T03:39:55;1.25;;;0.90;;
44981;SDS011;30716;41.740;-70.400;2023-04-07T03:42:21;2.10;;;1.27;;
44981;SDS011;30716;41.740;-70.400;2023-04-07T03:44:48;2.20;;;1.20;;
44981;SDS011;30716;41.740;-70.400;2023-04-07T03:47:14;1.23;;;0.82;;
44981;SDS011;30716;41.740;-70.400;2023-04-07T03:49:40;2.00;;;1.15;;
44981;SDS011;30716;41.740;-70.400;2023-04-07T03:52:06;1.65;;;1.00;;
44981;SDS011;30716;41.740;-70.400;2023-04-07T03:54:32;1.73;;;0.82;;
44981;SDS011;30716;41.740;-70.400;2023-04-07T03:56:59;2.40;;;1.50;;
44981;SDS011;30716;41.740;-70.400;2023-04-07T03:59:27;2.38;;;1.05;;
44981;SDS011;30716;41.740;-70.400;2023-04-07T04:01:53;1.55;;;0.98;;
44981;SDS011;30716;41.740;-70.400;2023-04-07T04:04:19;1.65;;;1.05;;
44981;SDS011;30716;41.740;-70.400;2023-04-07T04:06:46;1.55;;;1.10;;
44981;SDS011;30716;41.740;-70.400;2023-04-07T04:09:12;2.28;;;1.30;;
44981;SDS011;30716;41.740;-70.400;2023-04-07T04:11:38;1.20;;;0.70;;
44981;SDS011;30716;41.740;-70.400;2023-04-07T04:14:05;1.75;;;1.20;;
44981;SDS011;30716;41.740;-70.400;2023-04-07T04:16:31;2.25;;;1.25;;
44981;SDS011;30716;41.740;-70.400;2023-04-07T04:18:59;1.48;;;0.90;;
44981;SDS011;30716;41.740;-70.400;2023-04-07T04:21:26;2.00;;;1.30;;
44981;SDS011;30716;41.740;-70.400;2023-04-07T04:23:52;1.90;;;1.00;;
44981;SDS011;30716;41.740;-70.400;2023-04-07T04:26:18;2.03;;;1.30;;
44981;SDS011;30716;41.740;-70.400;2023-04-07T04:28:50;2.20;;;1.20;;
44981;SDS011;30716;41.740;-70.400;2023-04-07T04:31:17;3.30;;;1.48;;
44981;SDS011;30716;41.740;-70.400;2023-04-07T04:33:43;1.90;;;1.00;;
44981;SDS011;30716;41.740;-70.400;2023-04-07T04:36:10;2.40;;;1.45;;
44981;SDS011;30716;41.740;-70.400;2023-04-07T04:38:36;2.15;;;1.02;;
44981;SDS011;30716;41.740;-70.400;2023-04-07T04:41:02;2.05;;;1.20;;
44981;SDS011;30716;41.740;-70.400;2023-04-07T04:43:29;1.67;;;1.15;;
44981;SDS011;30716;41.740;-70.400;2023-04-07T04:45:56;1.83;;;0.98;;
44981;SDS011;30716;41.740;-70.400;2023-04-07T04:48:23;1.85;;;1.13;;
44981;SDS011;30716;41.740;-70.400;2023-04-07T04:50:49;1.45;;;0.90;;
44981;SDS011;30716;41.740;-70.400;2023-04-07T04:53:15;1.27;;;0.88;;
44981;SDS011;30716;41.740;-70.400;2023-04-07T04:55:41;2.17;;;1.10;;
44981;SDS011;30716;41.740;-70.400;2023-04-07T04:58:11;2.60;;;1.42;;
44981;SDS011;30716;41.740;-70.400;2023-04-07T05:00:37;1.15;;;0.80;;
44981;SDS011;30716;41.740;-70.400;2023-04-07T05:03:04;1.92;;;1.15;;
44981;SDS011;30716;41.740;-70.400;2023-04-07T05:05:30;1.95;;;1.20;;
44981;SDS011;30716;41.740;-70.400;2023-04-07T05:07:57;2.50;;;1.02;;
44981;SDS011;30716;41.740;-70.400;2023-04-07T05:10:23;2.20;;;1.40;;
44981;SDS011;30716;41.740;-70.400;2023-04-07T05:12:49;1.33;;;1.10;;
44981;SDS011;30716;41.740;-70.400;2023-04-07T05:15:16;2.15;;;1.30;;
44981;SDS011;30716;41.740;-70.400;2023-04-07T05:17:42;2.25;;;1.20;;
44981;SDS011;30716;41.740;-70.400;2023-04-07T05:20:08;2.50;;;1.13;;
44981;SDS011;30716;41.740;-70.400;2023-04-07T05:22:35;1.48;;;0.95;;
44981;SDS011;30716;41.740;-70.400;2023-04-07T05:25:01;1.50;;;0.90;;
44981;SDS011;30716;41.740;-70.400;2023-04-07T05:27:28;1.77;;;1.10;;
44981;SDS011;30716;41.740;-70.400;2023-04-07T05:29:54;1.50;;;0.80;;
44981;SDS011;30716;41.740;-70.400;2023-04-07T05:32:21;1.65;;;1.00;;
44981;SDS011;30716;41.740;-70.400;2023-04-07T05:34:47;2.50;;;1.00;;
44981;SDS011;30716;41.740;-70.400;2023-04-07T05:37:13;2.35;;;1.10;;
44981;SDS011;30716;41.740;-70.400;2023-04-07T05:39:39;1.83;;;0.95;;
44981;SDS011;30716;41.740;-70.400;2023-04-07T05:42:05;1.33;;;0.95;;
44981;SDS011;30716;41.740;-70.400;2023-04-07T05:44:32;1.40;;;1.00;;
44981;SDS011;30716;41.740;-70.400;2023-04-07T05:46:58;2.10;;;1.33;;
44981;SDS011;30716;41.740;-70.400;2023-04-07T05:49:24;1.83;;;1.13;;
44981;SDS011;30716;41.740;-70.400;2023-04-07T05:51:50;1.17;;;0.82;;
44981;SDS011;30716;41.740;-70.400;2023-04-07T05:54:17;1.05;;;0.73;;
44981;SDS011;30716;41.740;-70.400;2023-04-07T05:56:43;1.52;;;0.90;;
44981;SDS011;30716;41.740;-70.400;2023-04-07T05:59:09;1.20;;;0.70;;
44981;SDS011;30716;41.740;-70.400;2023-04-07T06:01:35;1.48;;;1.05;;
44981;SDS011;30716;41.740;-70.400;2023-04-07T06:04:02;1.90;;;0.77;;
44981;SDS011;30716;41.740;-70.400;2023-04-07T06:06:28;1.60;;;0.80;;
44981;SDS011;30716;41.740;-70.400;2023-04-07T06:08:55;1.65;;;0.95;;
44981;SDS011;30716;41.740;-70.400;2023-04-07T06:11:21;1.42;;;0.63;;
44981;SDS011;30716;41.740;-70.400;2023-04-07T06:13:48;2.33;;;0.88;;
44981;SDS011;30716;41.740;-70.400;2023-04-07T06:16:14;1.20;;;0.77;;
44981;SDS011;30716;41.740;-70.400;2023-04-07T06:18:40;1.65;;;0.90;;
44981;SDS011;30716;41.740;-70.400;2023-04-07T06:21:06;1.00;;;0.63;;
44981;SDS011;30716;41.740;-70.400;2023-04-07T06:23:33;2.78;;;1.40;;
44981;SDS011;30716;41.740;-70.400;2023-04-07T06:25:59;1.70;;;0.85;;
44981;SDS011;30716;41.740;-70.400;2023-04-07T06:28:25;1.23;;;0.80;;
44981;SDS011;30716;41.740;-70.400;2023-04-07T06:30:52;1.25;;;0.70;;
44981;SDS011;30716;41.740;-70.400;2023-04-07T06:33:18;0.98;;;0.70;;
44981;SDS011;30716;41.740;-70.400;2023-04-07T06:35:49;1.73;;;0.77;;
44981;SDS011;30716;41.740;-70.400;2023-04-07T06:38:16;1.90;;;0.95;;
44981;SDS011;30716;41.740;-70.400;2023-04-07T06:40:42;1.33;;;0.80;;
44981;SDS011;30716;41.740;-70.400;2023-04-07T06:43:08;1.90;;;1.00;;
44981;SDS011;30716;41.740;-70.400;2023-04-07T06:45:34;1.73;;;0.90;;
44981;SDS011;30716;41.740;-70.400;2023-04-07T06:48:01;2.00;;;0.95;;
44981;SDS011;30716;41.740;-70.400;2023-04-07T06:50:27;1.60;;;0.93;;
44981;SDS011;30716;41.740;-70.400;2023-04-07T06:52:53;1.20;;;0.68;;
44981;SDS011;30716;41.740;-70.400;2023-04-07T06:55:20;2.00;;;1.10;;
44981;SDS011;30716;41.740;-70.400;2023-04-07T06:57:46;1.35;;;0.88;;
44981;SDS011;30716;41.740;-70.400;2023-04-07T07:00:12;1.13;;;0.68;;
44981;SDS011;30716;41.740;-70.400;2023-04-07T07:02:39;1.33;;;0.82;;
44981;SDS011;30716;41.740;-70.400;2023-04-07T07:05:05;1.60;;;0.70;;
44981;SDS011;30716;41.740;-70.400;2023-04-07T07:07:32;1.35;;;0.88;;
44981;SDS011;30716;41.740;-70.400;2023-04-07T07:09:58;1.23;;;0.70;;
44981;SDS011;30716;41.740;-70.400;2023-04-07T07:12:27;0.77;;;0.55;;
44981;SDS011;30716;41.740;-70.400;2023-04-07T07:14:53;1.48;;;0.93;;
44981;SDS011;30716;41.740;-70.400;2023-04-07T07:17:19;1.92;;;0.55;;
44981;SDS011;30716;41.740;-70.400;2023-04-07T07:19:45;1.13;;;0.75;;
44981;SDS011;30716;41.740;-70.400;2023-04-07T07:22:12;0.95;;;0.60;;
44981;SDS011;30716;41.740;-70.400;2023-04-07T07:24:38;1.23;;;0.70;;
44981;SDS011;30716;41.740;-70.400;2023-04-07T07:27:04;1.33;;;0.93;;
44981;SDS011;30716;41.740;-70.400;2023-04-07T07:29:30;2.42;;;0.60;;
44981;SDS011;30716;41.740;-70.400;2023-04-07T07:31:57;1.00;;;0.60;;
44981;SDS011;30716;41.740;-70.400;2023-04-07T07:34:23;1.17;;;0.65;;
44981;SDS011;30716;41.740;-70.400;2023-04-07T07:36:49;1.20;;;0.60;;
44981;SDS011;30716;41.740;-70.400;2023-04-07T07:39:16;1.00;;;0.50;;
44981;SDS011;30716;41.740;-70.400;2023-04-07T07:41:42;0.93;;;0.50;;
44981;SDS011;30716;41.740;-70.400;2023-04-07T07:44:08;1.13;;;0.50;;
44981;SDS011;30716;41.740;-70.400;2023-04-07T07:46:35;1.45;;;0.80;;
44981;SDS011;30716;41.740;-70.400;2023-04-07T07:49:01;1.52;;;1.05;;
44981;SDS011;30716;41.740;-70.400;2023-04-07T07:51:29;1.00;;;0.60;;
44981;SDS011;30716;41.740;-70.400;2023-04-07T07:53:55;0.75;;;0.50;;
44981;SDS011;30716;41.740;-70.400;2023-04-07T07:56:21;1.30;;;0.43;;
44981;SDS011;30716;41.740;-70.400;2023-04-07T07:58:48;0.95;;;0.55;;
44981;SDS011;30716;41.740;-70.400;2023-04-07T08:01:14;1.33;;;0.55;;
44981;SDS011;30716;41.740;-70.400;2023-04-07T08:03:40;0.68;;;0.50;;
44981;SDS011;30716;41.740;-70.400;2023-04-07T08:06:07;1.05;;;0.60;;
44981;SDS011;30716;41.740;-70.400;2023-04-07T08:08:33;1.00;;;0.70;;
44981;SDS011;30716;41.740;-70.400;2023-04-07T08:11:00;1.00;;;0.40;;
44981;SDS011;30716;41.740;-70.400;2023-04-07T08:13:26;1.00;;;0.65;;
44981;SDS011;30716;41.740;-70.400;2023-04-07T08:15:52;0.95;;;0.55;;
44981;SDS011;30716;41.740;-70.400;2023-04-07T08:18:19;0.50;;;0.40;;
44981;SDS011;30716;41.740;-70.400;2023-04-07T08:20:45;0.95;;;0.50;;
44981;SDS011;30716;41.740;-70.400;2023-04-07T08:23:11;1.33;;;0.70;;
44981;SDS011;30716;41.740;-70.400;2023-04-07T08:25:37;0.98;;;0.50;;
44981;SDS011;30716;41.740;-70.400;2023-04-07T08:28:06;1.15;;;0.77;;
44981;SDS011;30716;41.740;-70.400;2023-04-07T08:30:33;0.90;;;0.55;;
44981;SDS011;30716;41.740;-70.400;2023-04-07T08:32:59;1.13;;;0.63;;
44981;SDS011;30716;41.740;-70.400;2023-04-07T08:35:25;0.85;;;0.52;;
44981;SDS011;30716;41.740;-70.400;2023-04-07T08:37:51;0.55;;;0.47;;
44981;SDS011;30716;41.740;-70.400;2023-04-07T08:40:18;1.15;;;0.70;;
44981;SDS011;30716;41.740;-70.400;2023-04-07T08:42:47;1.10;;;0.60;;
44981;SDS011;30716;41.740;-70.400;2023-04-07T08:45:13;0.52;;;0.40;;
44981;SDS011;30716;41.740;-70.400;2023-04-07T08:47:45;0.82;;;0.50;;
44981;SDS011;30716;41.740;-70.400;2023-04-07T08:50:15;1.08;;;0.50;;
44981;SDS011;30716;41.740;-70.400;2023-04-07T08:52:48;1.00;;;0.40;;
44981;SDS011;30716;41.740;-70.400;2023-04-07T08:55:17;0.75;;;0.50;;
44981;SDS011;30716;41.740;-70.400;2023-04-07T08:57:44;1.10;;;0.47;;
44981;SDS011;30716;41.740;-70.400;2023-04-07T09:00:11;0.70;;;0.32;;
44981;SDS011;30716;41.740;-70.400;2023-04-07T09:02:39;1.02;;;0.40;;
44981;SDS011;30716;41.740;-70.400;2023-04-07T09:05:08;0.68;;;0.40;;
44981;SDS011;30716;41.740;-70.400;2023-04-07T09:07:36;1.02;;;0.52;;
44981;SDS011;30716;41.740;-70.400;2023-04-07T09:10:07;0.75;;;0.40;;
44981;SDS011;30716;41.740;-70.400;2023-04-07T09:12:34;1.00;;;0.73;;
44981;SDS011;30716;41.740;-70.400;2023-04-07T09:15:00;1.00;;;0.50;;
44981;SDS011;30716;41.740;-70.400;2023-04-07T09:17:27;1.02;;;0.30;;
44981;SDS011;30716;41.740;-70.400;2023-04-07T09:19:57;0.90;;;0.40;;
44981;SDS011;30716;41.740;-70.400;2023-04-07T09:27:38;0.52;;;0.30;;
44981;SDS011;30716;41.740;-70.400;2023-04-07T09:30:13;0.77;;;0.40;;
44981;SDS011;30716;41.740;-70.400;2023-04-07T09:32:40;0.40;;;0.32;;
44981;SDS011;30716;41.740;-70.400;2023-04-07T09:35:07;0.40;;;0.40;;
44981;SDS011;30716;41.740;-70.400;2023-04-07T09:37:33;1.10;;;0.60;;
44981;SDS011;30716;41.740;-70.400;2023-04-07T09:40:00;1.38;;;0.50;;
44981;SDS011;30716;41.740;-70.400;2023-04-07T09:42:26;0.47;;;0.30;;
44981;SDS011;30716;41.740;-70.400;2023-04-07T09:44:57;1.05;;;0.40;;
44981;SDS011;30716;41.740;-70.400;2023-04-07T09:47:27;1.30;;;0.60;;
44981;SDS011;30716;41.740;-70.400;2023-04-07T09:49:55;0.70;;;0.40;;
44981;SDS011;30716;41.740;-70.400;2023-04-07T09:52:24;0.90;;;0.50;;
44981;SDS011;30716;41.740;-70.400;2023-04-07T09:55:10;0.77;;;0.40;;
44981;SDS011;30716;41.740;-70.400;2023-04-07T09:57:38;0.60;;;0.40;;
44981;SDS011;30716;41.740;-70.400;2023-04-07T10:00:05;0.98;;;0.40;;
44981;SDS011;30716;41.740;-70.400;2023-04-07T10:02:32;0.63;;;0.30;;
44981;SDS011;30716;41.740;-70.400;2023-04-07T10:04:59;0.30;;;0.20;;
44981;SDS011;30716;41.740;-70.400;2023-04-07T10:07:25;0.70;;;0.50;;
44981;SDS011;30716;41.740;-70.400;2023-04-07T10:09:51;0.70;;;0.25;;
44981;SDS011;30716;41.740;-70.400;2023-04-07T10:12:18;0.55;;;0.30;;
44981;SDS011;30716;41.740;-70.400;2023-04-07T10:14:44;0.52;;;0.28;;
44981;SDS011;30716;41.740;-70.400;2023-04-07T10:17:16;1.98;;;0.52;;
44981;SDS011;30716;41.740;-70.400;2023-04-07T10:19:48;0.45;;;0.30;;
44981;SDS011;30716;41.740;-70.400;2023-04-07T10:22:16;0.70;;;0.30;;
44981;SDS011;30716;41.740;-70.400;2023-04-07T10:25:05;0.70;;;0.40;;
44981;SDS011;30716;41.740;-70.400;2023-04-07T10:30:44;1.17;;;0.75;;
44981;SDS011;30716;41.740;-70.400;2023-04-07T10:33:17;0.70;;;0.40;;
44981;SDS011;30716;41.740;-70.400;2023-04-07T10:36:06;0.30;;;0.30;;
44981;SDS011;30716;41.740;-70.400;2023-04-07T10:41:43;1.77;;;0.43;;
44981;SDS011;30716;41.740;-70.400;2023-04-07T10:50:28;0.20;;;0.20;;
44981;SDS011;30716;41.740;-70.400;2023-04-07T10:53:08;0.55;;;0.47;;
44981;SDS011;30716;41.740;-70.400;2023-04-07T10:58:23;0.47;;;0.40;;
44981;SDS011;30716;41.740;-70.400;2023-04-07T11:03:30;1.55;;;0.38;;
44981;SDS011;30716;41.740;-70.400;2023-04-07T11:06:10;0.50;;;0.30;;
44981;SDS011;30716;41.740;-70.400;2023-04-07T11:08:42;0.52;;;0.40;;
44981;SDS011;30716;41.740;-70.400;2023-04-07T11:11:10;0.63;;;0.22;;
44981;SDS011;30716;41.740;-70.400;2023-04-07T11:13:45;0.75;;;0.30;;
44981;SDS011;30716;41.740;-70.400;2023-04-07T11:16:17;0.55;;;0.30;;
44981;SDS011;30716;41.740;-70.400;2023-04-07T11:18:50;0.47;;;0.28;;
44981;SDS011;30716;41.740;-70.400;2023-04-07T11:21:31;0.45;;;0.22;;
44981;SDS011;30716;41.740;-70.400;2023-04-07T11:26:35;1.10;;;0.32;;
44981;SDS011;30716;41.740;-70.400;2023-04-07T11:29:10;0.40;;;0.20;;
44981;SDS011;30716;41.740;-70.400;2023-04-07T11:31:40;0.60;;;0.30;;
44981;SDS011;30716;41.740;-70.400;2023-04-07T11:34:15;0.52;;;0.30;;
44981;SDS011;30716;41.740;-70.400;2023-04-07T11:36:42;1.10;;;0.30;;
44981;SDS011;30716;41.740;-70.400;2023-04-07T11:41:44;0.57;;;0.30;;
44981;SDS011;30716;41.740;-70.400;2023-04-07T11:44:12;0.43;;;0.22;;
44981;SDS011;30716;41.740;-70.400;2023-04-07T11:46:55;0.25;;;0.20;;
44981;SDS011;30716;41.740;-70.400;2023-04-07T11:49:22;0.45;;;0.25;;
44981;SDS011;30716;41.740;-70.400;2023-04-07T11:52:04;1.67;;;0.45;;
44981;SDS011;30716;41.740;-70.400;2023-04-07T11:54:52;0.50;;;0.28;;
44981;SDS011;30716;41.740;-70.400;2023-04-07T11:57:27;0.80;;;0.40;;
44981;SDS011;30716;41.740;-70.400;2023-04-07T12:00:07;0.57;;;0.30;;
44981;SDS011;30716;41.740;-70.400;2023-04-07T12:02:36;1.40;;;0.32;;
44981;SDS011;30716;41.740;-70.400;2023-04-07T12:05:03;0.75;;;0.35;;
44981;SDS011;30716;41.740;-70.400;2023-04-07T12:07:35;0.47;;;0.22;;
44981;SDS011;30716;41.740;-70.400;2023-04-07T12:10:22;0.70;;;0.35;;
44981;SDS011;30716;41.740;-70.400;2023-04-07T12:12:51;0.52;;;0.30;;
44981;SDS011;30716;41.740;-70.400;2023-04-07T12:15:20;0.30;;;0.20;;
44981;SDS011;30716;41.740;-70.400;2023-04-07T12:17:47;0.70;;;0.30;;
44981;SDS011;30716;41.740;-70.400;2023-04-07T12:20:14;1.50;;;0.40;;
44981;SDS011;30716;41.740;-70.400;2023-04-07T12:22:41;0.73;;;0.40;;
44981;SDS011;30716;41.740;-70.400;2023-04-07T12:25:07;0.50;;;0.32;;
44981;SDS011;30716;41.740;-70.400;2023-04-07T12:27:34;0.50;;;0.30;;
44981;SDS011;30716;41.740;-70.400;2023-04-07T12:30:00;1.70;;;0.50;;
44981;SDS011;30716;41.740;-70.400;2023-04-07T12:32:28;1.00;;;0.40;;
44981;SDS011;30716;41.740;-70.400;2023-04-07T12:34:54;0.70;;;0.30;;
44981;SDS011;30716;41.740;-70.400;2023-04-07T12:37:21;1.58;;;0.30;;
44981;SDS011;30716;41.740;-70.400;2023-04-07T12:39:47;0.30;;;0.28;;
44981;SDS011;30716;41.740;-70.400;2023-04-07T12:42:13;0.95;;;0.30;;
44981;SDS011;30716;41.740;-70.400;2023-04-07T12:44:40;0.40;;;0.20;;
44981;SDS011;30716;41.740;-70.400;2023-04-07T12:47:06;0.55;;;0.35;;
44981;SDS011;30716;41.740;-70.400;2023-04-07T12:49:33;0.60;;;0.20;;
44981;SDS011;30716;41.740;-70.400;2023-04-07T12:51:59;0.85;;;0.38;;
44981;SDS011;30716;41.740;-70.400;2023-04-07T12:54:26;0.40;;;0.20;;
44981;SDS011;30716;41.740;-70.400;2023-04-07T12:56:53;0.52;;;0.20;;
44981;SDS011;30716;41.740;-70.400;2023-04-07T12:59:21;0.50;;;0.20;;
44981;SDS011;30716;41.740;-70.400;2023-04-07T13:01:48;0.32;;;0.20;;
44981;SDS011;30716;41.740;-70.400;2023-04-07T13:04:14;0.73;;;0.38;;
44981;SDS011;30716;41.740;-70.400;2023-04-07T13:06:42;0.82;;;0.30;;
44981;SDS011;30716;41.740;-70.400;2023-04-07T13:09:08;0.13;;;0.10;;
44981;SDS011;30716;41.740;-70.400;2023-04-07T13:11:35;0.30;;;0.30;;
44981;SDS011;30716;41.740;-70.400;2023-04-07T13:14:01;0.63;;;0.30;;
44981;SDS011;30716;41.740;-70.400;2023-04-07T13:16:28;0.32;;;0.20;;
44981;SDS011;30716;41.740;-70.400;2023-04-07T13:18:54;0.70;;;0.40;;
44981;SDS011;30716;41.740;-70.400;2023-04-07T13:21:21;0.63;;;0.40;;
44981;SDS011;30716;41.740;-70.400;2023-04-07T13:23:48;0.47;;;0.20;;
44981;SDS011;30716;41.740;-70.400;2023-04-07T13:26:15;0.35;;;0.30;;
44981;SDS011;30716;41.740;-70.400;2023-04-07T13:28:45;0.35;;;0.22;;
44981;SDS011;30716;41.740;-70.400;2023-04-07T13:31:12;0.47;;;0.20;;
44981;SDS011;30716;41.740;-70.400;2023-04-07T13:33:40;0.50;;;0.30;;
44981;SDS011;30716;41.740;-70.400;2023-04-07T13:36:06;0.30;;;0.20;;
44981;SDS011;30716;41.740;-70.400;2023-04-07T13:38:33;0.82;;;0.40;;
44981;SDS011;30716;41.740;-70.400;2023-04-07T13:40:59;0.52;;;0.30;;
44981;SDS011;30716;41.740;-70.400;2023-04-07T13:43:27;5.60;;;0.65;;
44981;SDS011;30716;41.740;-70.400;2023-04-07T13:45:54;0.38;;;0.20;;
44981;SDS011;30716;41.740;-70.400;2023-04-07T13:48:21;0.52;;;0.25;;
44981;SDS011;30716;41.740;-70.400;2023-04-07T13:50:50;0.20;;;0.17;;
44981;SDS011;30716;41.740;-70.400;2023-04-07T13:53:17;0.45;;;0.20;;
44981;SDS011;30716;41.740;-70.400;2023-04-07T13:55:44;0.22;;;0.20;;
44981;SDS011;30716;41.740;-70.400;2023-04-07T13:58:11;0.57;;;0.30;;
44981;SDS011;30716;41.740;-70.400;2023-04-07T14:00:37;0.98;;;0.45;;
44981;SDS011;30716;41.740;-70.400;2023-04-07T14:03:06;0.88;;;0.30;;
44981;SDS011;30716;41.740;-70.400;2023-04-07T14:05:36;0.50;;;0.20;;
44981;SDS011;30716;41.740;-70.400;2023-04-07T14:08:02;1.08;;;0.47;;
44981;SDS011;30716;41.740;-70.400;2023-04-07T14:10:28;0.10;;;0.10;;
44981;SDS011;30716;41.740;-70.400;2023-04-07T14:12:55;0.93;;;0.40;;
44981;SDS011;30716;41.740;-70.400;2023-04-07T14:15:22;0.55;;;0.38;;
44981;SDS011;30716;41.740;-70.400;2023-04-07T14:17:48;0.50;;;0.20;;
44981;SDS011;30716;41.740;-70.400;2023-04-07T14:20:15;0.47;;;0.25;;
44981;SDS011;30716;41.740;-70.400;2023-04-07T14:22:42;1.05;;;0.20;;
44981;SDS011;30716;41.740;-70.400;2023-04-07T14:25:09;1.35;;;0.45;;
44981;SDS011;30716;41.740;-70.400;2023-04-07T14:27:36;0.32;;;0.20;;
44981;SDS011;30716;41.740;-70.400;2023-04-07T14:30:03;1.85;;;0.47;;
44981;SDS011;30716;41.740;-70.400;2023-04-07T14:32:31;1.25;;;0.20;;
44981;SDS011;30716;41.740;-70.400;2023-04-07T14:35:01;0.65;;;0.30;;
44981;SDS011;30716;41.740;-70.400;2023-04-07T14:37:28;0.50;;;0.30;;
44981;SDS011;30716;41.740;-70.400;2023-04-07T14:39:54;1.10;;;0.30;;
44981;SDS011;30716;41.740;-70.400;2023-04-07T14:42:22;0.80;;;0.20;;
44981;SDS011;30716;41.740;-70.400;2023-04-07T14:44:48;0.40;;;0.10;;
44981;SDS011;30716;41.740;-70.400;2023-04-07T14:47:15;0.63;;;0.20;;
44981;SDS011;30716;41.740;-70.400;2023-04-07T14:49:41;0.30;;;0.25;;
44981;SDS011;30716;41.740;-70.400;2023-04-07T14:52:08;0.73;;;0.30;;
44981;SDS011;30716;41.740;-70.400;2023-04-07T14:54:35;0.40;;;0.20;;
44981;SDS011;30716;41.740;-70.400;2023-04-07T14:57:01;0.22;;;0.20;;
44981;SDS011;30716;41.740;-70.400;2023-04-07T14:59:28;0.50;;;0.20;;
44981;SDS011;30716;41.740;-70.400;2023-04-07T15:01:54;0.40;;;0.20;;